Time;durP1;ratioP1;P1;durP2;ratioP2;P2;SDS_P1;SDS_P2;PMS_P1;PMS_P2;Temp;Humidity;BMP_temperature;BMP_pressure;BME280_temperature;BME280_humidity;BME280_pressure;Samples;Min_cycle;Max_cycle;Signal;HPM_P1;HPM_P2
2024/02/07 00:00:13;;;;;;;58.42;16.63;;;;;;;;;;4994298;28;20081;-83
2024/02/07 00:02:39;;;;;;;60.95;17.55;;;;;;;;;;4978753;28;20047;-83
2024/02/07 00:05:06;;;;;;;60.88;17.50;;;;;;;;;;4994148;28;20397;-82
2024/02/07 00:07:33;;;;;;;60.33;18.33;;;;;;;;;;4978457;28;20355;-83
2024/02/07 00:10:00;;;;;;;72.45;17.73;;;;;;;;;;4995688;28;20104;-83
2024/02/07 00:12:28;;;;;;;72.00;17.88;;;;;;;;;;4961875;28;20113;-83
2024/02/07 00:14:55;;;;;;;58.88;17.05;;;;;;;;;;4994560;28;20054;-83
2024/02/07 00:17:21;;;;;;;64.50;17.02;;;;;;;;;;4995028;28;20378;-84
2024/02/07 00:19:50;;;;;;;64.88;17.00;;;;;;;;;;4994329;28;20046;-83
2024/02/07 00:22:17;;;;;;;;;;;;;;;;;;4978258;28;20042;-83
2024/02/07 00:24:44;;;;;;;55.45;17.50;;;;;;;;;;4994409;28;19984;-83
2024/02/07 00:27:11;;;;;;;64.10;18.42;;;;;;;;;;4993994;28;20042;-83
2024/02/07 00:29:38;;;;;;;50.20;17.80;;;;;;;;;;4995376;28;20046;-84
2024/02/07 00:32:05;;;;;;;62.72;18.63;;;;;;;;;;4993733;28;20112;-82
2024/02/07 00:34:33;;;;;;;77.30;19.63;;;;;;;;;;4995175;28;20112;-84
2024/02/07 00:37:00;;;;;;;61.22;18.20;;;;;;;;;;4995148;28;20077;-84
2024/02/07 00:39:27;;;;;;;56.88;17.90;;;;;;;;;;4994676;28;20046;-83
2024/02/07 00:41:53;;;;;;;76.97;18.10;;;;;;;;;;4961989;28;20046;-83
2024/02/07 00:44:20;;;;;;;65.20;16.75;;;;;;;;;;4994656;28;20405;-81
2024/02/07 00:46:47;;;;;;;69.60;17.48;;;;;;;;;;4994172;28;20489;-81
2024/02/07 00:49:14;;;;;;;49.90;17.20;;;;;;;;;;4977378;28;20043;-81
2024/02/07 00:51:41;;;;;;;56.05;15.70;;;;;;;;;;4977836;28;20042;-84
2024/02/07 00:54:08;;;;;;;64.28;16.70;;;;;;;;;;4961223;28;20045;-83
2024/02/07 00:56:35;;;;;;;58.03;15.90;;;;;;;;;;4961788;28;20471;-84
2024/02/07 00:59:02;;;;;;;60.67;15.13;;;;;;;;;;4993859;28;20042;-83
2024/02/07 01:01:29;;;;;;;62.45;17.30;;;;;;;;;;4977406;28;20057;-83
2024/02/07 01:03:56;;;;;;;50.40;16.20;;;;;;;;;;4993773;28;20077;-83
2024/02/07 01:06:23;;;;;;;51.78;14.98;;;;;;;;;;4960966;28;20470;-83
2024/02/07 01:08:50;;;;;;;53.83;15.50;;;;;;;;;;4977480;28;20046;-83
2024/02/07 01:11:16;;;;;;;54.08;15.02;;;;;;;;;;4993160;28;20042;-84
2024/02/07 01:13:45;;;;;;;50.17;16.25;;;;;;;;;;4994657;28;20057;-84
2024/02/07 01:16:12;;;;;;;;;;;;;;;;;;4977464;28;20054;-84
2024/02/07 01:18:39;;;;;;;56.63;15.40;;;;;;;;;;4993693;28;19928;-83
2024/02/07 01:21:08;;;;;;;66.75;15.90;;;;;;;;;;4976729;28;20043;-83
2024/02/07 01:23:44;;;;;;;57.45;15.15;;;;;;;;;;4993268;28;20073;-82
2024/02/07 01:26:14;;;;;;;51.72;14.82;;;;;;;;;;4993982;28;20385;-81
2024/02/07 01:28:41;;;;;;;56.90;15.50;;;;;;;;;;4977508;28;20390;-80
2024/02/07 01:31:08;;;;;;;67.28;15.93;;;;;;;;;;4994063;28;20050;-81
2024/02/07 01:33:35;;;;;;;49.95;14.77;;;;;;;;;;4993159;28;20058;-81
2024/02/07 01:36:02;;;;;;;64.30;16.75;;;;;;;;;;4976893;28;20150;-83
2024/02/07 01:38:29;;;;;;;63.72;15.65;;;;;;;;;;4976669;28;20042;-83
2024/02/07 01:40:59;;;;;;;61.67;16.15;;;;;;;;;;4976890;28;20042;-83
2024/02/07 01:43:33;;;;;;;58.80;15.73;;;;;;;;;;4992661;28;20046;-82
2024/02/07 01:46:01;;;;;;;57.33;16.05;;;;;;;;;;4994472;28;20129;-83
2024/02/07 01:48:29;;;;;;;68.95;17.58;;;;;;;;;;4991824;28;20054;-83
2024/02/07 01:50:58;;;;;;;56.67;17.20;;;;;;;;;;4992964;28;20049;-83
2024/02/07 01:53:26;;;;;;;61.13;17.33;;;;;;;;;;4993657;28;20042;-83
2024/02/07 01:55:53;;;;;;;;;;;;;;;;;;4994306;28;20363;-83
2024/02/07 01:58:20;;;;;;;57.35;17.83;;;;;;;;;;4993364;28;19922;-83
2024/02/07 02:00:48;;;;;;;68.43;18.30;;;;;;;;;;4976735;28;20050;-83
2024/02/07 02:03:15;;;;;;;68.10;17.88;;;;;;;;;;4976127;28;20054;-83
2024/02/07 02:05:42;;;;;;;56.78;18.58;;;;;;;;;;4960786;28;20576;-83
2024/02/07 02:08:10;;;;;;;54.97;17.17;;;;;;;;;;4993129;28;20042;-83
2024/02/07 02:10:37;;;;;;;70.88;18.60;;;;;;;;;;4976548;28;20448;-83
2024/02/07 02:13:05;;;;;;;64.93;19.02;;;;;;;;;;4976030;28;20061;-82
2024/02/07 02:15:32;;;;;;;60.60;19.40;;;;;;;;;;4993688;28;20053;-83
2024/02/07 02:17:58;;;;;;;68.78;20.17;;;;;;;;;;4992363;28;20046;-82
2024/02/07 02:20:26;;;;;;;69.15;20.20;;;;;;;;;;4993030;28;20520;-83
2024/02/07 02:23:14;;;;;;;70.55;21.65;;;;;;;;;;4992515;28;20049;-82
2024/02/07 02:26:25;;;;;;;73.10;20.83;;;;;;;;;;4975534;28;20078;-83
2024/02/07 02:29:07;;;;;;;54.78;20.17;;;;;;;;;;4992928;28;20397;-82
2024/02/07 02:31:34;;;;;;;62.53;21.08;;;;;;;;;;4975977;28;20056;-83
2024/02/07 02:34:03;;;;;;;69.63;19.98;;;;;;;;;;4997349;28;20043;-82
2024/02/07 02:36:30;;;;;;;70.65;19.40;;;;;;;;;;4976045;28;20054;-82
2024/02/07 02:38:57;;;;;;;66.95;21.23;;;;;;;;;;4993263;28;20517;-83
2024/02/07 02:41:24;;;;;;;83.63;20.30;;;;;;;;;;4992859;28;20536;-83
2024/02/07 02:43:52;;;;;;;70.65;20.98;;;;;;;;;;4992131;28;20046;-82
2024/02/07 02:46:20;;;;;;;74.70;21.20;;;;;;;;;;4991466;28;20477;-82
2024/02/07 02:48:46;;;;;;;80.13;21.58;;;;;;;;;;4993333;28;20042;-82
2024/02/07 02:51:13;;;;;;;77.60;19.52;;;;;;;;;;4991734;28;20046;-82
2024/02/07 02:53:40;;;;;;;67.95;19.33;;;;;;;;;;4993147;28;20052;-82
2024/02/07 02:56:09;;;;;;;81.22;19.85;;;;;;;;;;4975445;28;20146;-82
2024/02/07 02:58:37;;;;;;;68.10;20.25;;;;;;;;;;4977021;28;20112;-82
2024/02/07 03:01:10;;;;;;;71.65;20.98;;;;;;;;;;4995549;28;20038;-82
2024/02/07 03:03:38;;;;;;;78.53;18.97;;;;;;;;;;4997245;28;20050;-82
2024/02/07 03:06:18;;;;;;;63.50;19.00;;;;;;;;;;4995261;28;20385;-83
2024/02/07 03:08:54;;;;;;;70.15;19.70;;;;;;;;;;4996902;28;20052;-83
2024/02/07 03:11:21;;;;;;;73.82;20.83;;;;;;;;;;4996614;28;20046;-82
2024/02/07 03:13:48;;;;;;;73.05;20.90;;;;;;;;;;4979491;28;20058;-83
2024/02/07 03:16:15;;;;;;;71.70;19.25;;;;;;;;;;4996603;28;20066;-82
2024/02/07 03:18:42;;;;;;;73.40;19.88;;;;;;;;;;4996863;28;20046;-82
2024/02/07 03:21:09;;;;;;;78.45;19.98;;;;;;;;;;4979283;28;20541;-83
2024/02/07 03:23:36;;;;;;;72.45;19.60;;;;;;;;;;4996946;28;20128;-83
2024/02/07 03:26:04;;;;;;;62.97;19.80;;;;;;;;;;4963313;28;20436;-82
2024/02/07 03:28:31;;;;;;;75.22;19.70;;;;;;;;;;4996486;28;20093;-83
2024/02/07 03:30:59;;;;;;;67.68;18.40;;;;;;;;;;4979130;28;20042;-83
2024/02/07 03:33:25;;;;;;;62.97;18.67;;;;;;;;;;4994645;28;20046;-83
2024/02/07 03:35:54;;;;;;;64.68;17.77;;;;;;;;;;4996607;28;20065;-83
2024/02/07 03:38:21;;;;;;;75.37;19.47;;;;;;;;;;4978595;28;20046;-83
2024/02/07 03:40:49;;;;;;;66.70;18.48;;;;;;;;;;4996296;28;20050;-83
2024/02/07 03:43:17;;;;;;;68.55;17.92;;;;;;;;;;4978951;28;20121;-83
2024/02/07 03:45:44;;;;;;;69.13;19.60;;;;;;;;;;4979025;28;20049;-83
2024/02/07 03:48:15;;;;;;;51.08;16.45;;;;;;;;;;4994792;28;20186;-82
2024/02/07 03:50:42;;;;;;;57.88;16.05;;;;;;;;;;4995467;28;20081;-83
2024/02/07 03:53:09;;;;;;;49.75;15.82;;;;;;;;;;4978632;28;20072;-82
2024/02/07 03:55:36;;;;;;;47.97;14.20;;;;;;;;;;4995010;28;20449;-82
2024/02/07 03:58:05;;;;;;;51.72;14.15;;;;;;;;;;4995960;28;20090;-82
2024/02/07 04:00:32;;;;;;;48.28;14.80;;;;;;;;;;4978807;28;20042;-82
2024/02/07 04:03:00;;;;;;;46.28;13.70;;;;;;;;;;4995973;28;20046;-82
2024/02/07 04:05:27;;;;;;;42.03;14.57;;;;;;;;;;4978169;28;20044;-82
2024/02/07 04:07:54;;;;;;;36.53;13.15;;;;;;;;;;4978592;28;20042;-82
2024/02/07 04:10:23;;;;;;;39.22;12.73;;;;;;;;;;4994596;28;20106;-82
2024/02/07 05:16:14;;;;;;;20.83;8.02;;;;;;;;;;4976943;28;20046;-82
2024/02/07 05:18:41;;;;;;;29.75;8.35;;;;;;;;;;4994882;28;20046;-83
2024/02/07 05:21:12;;;;;;;25.77;8.50;;;;;;;;;;4976902;28;20052;-83
2024/02/07 05:23:40;;;;;;;27.63;8.35;;;;;;;;;;4976192;28;20498;-82
2024/02/07 05:26:08;;;;;;;23.13;8.15;;;;;;;;;;4976973;28;20085;-82
2024/02/07 05:28:36;;;;;;;35.10;10.10;;;;;;;;;;4977430;28;20042;-83
2024/02/07 05:31:04;;;;;;;27.98;8.63;;;;;;;;;;4976686;28;20046;-81
2024/02/07 05:33:31;;;;;;;25.77;8.57;;;;;;;;;;4994064;28;20470;-83
2024/02/07 05:35:59;;;;;;;25.77;7.50;;;;;;;;;;4977602;28;20129;-84
2024/02/07 05:38:26;;;;;;;28.60;8.13;;;;;;;;;;4993943;28;20712;-88
2024/02/07 05:40:53;;;;;;;22.75;7.25;;;;;;;;;;4961116;28;20042;-82
2024/02/07 05:43:19;;;;;;;23.10;6.10;;;;;;;;;;4976403;28;20393;-82
2024/02/07 05:45:46;;;;;;;29.00;7.22;;;;;;;;;;4961089;28;20053;-82
2024/02/07 05:48:13;;;;;;;37.17;8.35;;;;;;;;;;4993411;28;20049;-85
2024/02/07 05:50:40;;;;;;;23.20;7.15;;;;;;;;;;4976071;28;20058;-82
2024/02/07 05:53:07;;;;;;;23.17;6.40;;;;;;;;;;4976125;28;20050;-83
2024/02/07 05:55:35;;;;;;;23.23;7.35;;;;;;;;;;4959470;28;20050;-82
2024/02/07 05:58:03;;;;;;;24.67;6.85;;;;;;;;;;4975868;28;20050;-83
2024/02/07 06:00:30;;;;;;;24.17;6.43;;;;;;;;;;4975401;28;20465;-83
2024/02/07 06:02:56;;;;;;;20.20;6.10;;;;;;;;;;4992181;28;20046;-82
2024/02/07 06:05:23;;;;;;;17.27;5.45;;;;;;;;;;4991730;28;20038;-82
2024/02/07 06:07:50;;;;;;;19.17;5.53;;;;;;;;;;4959656;28;20054;-82
2024/02/07 06:10:19;;;;;;;17.95;5.72;;;;;;;;;;4992502;28;20038;-83
2024/02/07 06:12:46;;;;;;;16.13;4.63;;;;;;;;;;4993032;28;20074;-82
2024/02/07 06:15:14;;;;;;;10.90;4.82;;;;;;;;;;4975441;28;20470;-83
2024/02/07 06:17:41;;;;;;;16.10;4.90;;;;;;;;;;4973771;28;20473;-83
2024/02/07 06:20:09;;;;;;;12.95;4.80;;;;;;;;;;4975094;28;20042;-83
2024/02/07 06:22:37;;;;;;;15.20;4.90;;;;;;;;;;4992438;28;20050;-82
2024/02/07 06:25:05;;;;;;;13.63;4.75;;;;;;;;;;4975887;28;20050;-81
2024/02/07 06:27:32;;;;;;;17.45;5.40;;;;;;;;;;4976302;28;20038;-82
2024/02/07 06:29:58;;;;;;;20.42;5.28;;;;;;;;;;4993334;28;20050;-83
2024/02/07 06:32:25;;;;;;;23.58;5.22;;;;;;;;;;4991546;28;20046;-82
2024/02/07 06:34:52;;;;;;;19.10;5.38;;;;;;;;;;4991027;28;20046;-82
2024/02/07 06:37:19;;;;;;;15.18;5.70;;;;;;;;;;4973326;28;20046;-83
2024/02/07 06:39:46;;;;;;;23.55;6.28;;;;;;;;;;4991176;28;20370;-82
2024/02/07 06:42:12;;;;;;;20.15;6.50;;;;;;;;;;4990569;28;20096;-83
2024/02/07 06:44:39;;;;;;;21.75;6.82;;;;;;;;;;4973883;28;20039;-83
2024/02/07 06:47:06;;;;;;;28.38;7.78;;;;;;;;;;4990286;28;20478;-83
2024/02/07 06:49:40;;;;;;;26.95;7.10;;;;;;;;;;4993627;28;20042;-83
2024/02/07 06:52:07;;;;;;;28.60;6.38;;;;;;;;;;4991864;28;20042;-83
2024/02/07 06:54:33;;;;;;;19.65;6.07;;;;;;;;;;4992949;28;20485;-83
2024/02/07 06:57:00;;;;;;;15.52;5.22;;;;;;;;;;4976224;28;20483;-82
2024/02/07 06:59:27;;;;;;;14.80;5.47;;;;;;;;;;4975562;28;20058;-83
2024/02/07 07:01:55;;;;;;;17.95;5.53;;;;;;;;;;4959660;28;20047;-83
2024/02/07 07:04:22;;;;;;;14.63;5.65;;;;;;;;;;4974690;28;20054;-83
2024/02/07 07:06:49;;;;;;;29.90;6.78;;;;;;;;;;4957758;28;20055;-82
2024/02/07 07:09:18;;;;;;;28.67;7.60;;;;;;;;;;4990416;28;20137;-82
2024/02/07 07:11:45;;;;;;;47.05;7.90;;;;;;;;;;4990977;28;20057;-82
2024/02/07 07:14:12;;;;;;;40.63;9.50;;;;;;;;;;4990348;28;20105;-82
2024/02/07 07:16:38;;;;;;;39.88;9.70;;;;;;;;;;4990932;28;20054;-83
2024/02/07 07:19:05;;;;;;;48.13;10.60;;;;;;;;;;4989723;28;20526;-83
2024/02/07 07:21:37;;;;;;;57.97;11.38;;;;;;;;;;4975646;28;20082;-83
2024/02/07 07:24:04;;;;;;;49.60;9.65;;;;;;;;;;4991769;28;20105;-82
2024/02/07 07:26:31;;;;;;;51.72;10.32;;;;;;;;;;4975433;28;20124;-81
2024/02/07 07:28:58;;;;;;;41.92;8.75;;;;;;;;;;4991588;28;20043;-81
2024/02/07 07:31:25;;;;;;;38.87;8.53;;;;;;;;;;4992635;28;20366;-81
2024/02/07 07:33:54;;;;;;;49.75;8.30;;;;;;;;;;4975268;28;20042;-81
2024/02/07 07:36:26;;;;;;;42.85;8.77;;;;;;;;;;4975007;28;20133;-81
2024/02/07 07:38:54;;;;;;;57.53;10.40;;;;;;;;;;4959490;28;20062;-81
2024/02/07 07:41:21;;;;;;;59.65;10.05;;;;;;;;;;4991305;28;20058;-82
2024/02/07 07:43:48;;;;;;;51.03;10.60;;;;;;;;;;4975410;28;20046;-81
2024/02/07 07:46:15;;;;;;;50.50;9.88;;;;;;;;;;4992509;28;20470;-81
2024/02/07 07:48:42;;;;;;;47.58;10.63;;;;;;;;;;4995277;28;20050;-81
2024/02/07 07:51:09;;;;;;;60.60;9.95;;;;;;;;;;4978522;28;20070;-81
2024/02/07 07:53:36;;;;;;;42.75;8.55;;;;;;;;;;4978704;28;20054;-81
2024/02/07 07:56:03;;;;;;;43.10;8.18;;;;;;;;;;4978950;28;20038;-81
2024/02/07 07:58:30;;;;;;;48.08;8.73;;;;;;;;;;4995813;28;20121;-81
2024/02/07 08:01:21;;;;;;;43.03;8.25;;;;;;;;;;4978057;28;20069;-81
2024/02/07 08:03:51;;;;;;;32.22;5.72;;;;;;;;;;4995247;28;20050;-81
2024/02/07 08:06:18;;;;;;;23.92;5.20;;;;;;;;;;4995580;28;20050;-82
2024/02/07 08:08:44;;;;;;;24.48;5.57;;;;;;;;;;4962558;28;20429;-82
2024/02/07 08:11:11;;;;;;;29.30;6.53;;;;;;;;;;4995497;28;20046;-81
2024/02/07 08:13:38;;;;;;;29.60;6.78;;;;;;;;;;4995930;28;20046;-82
2024/02/07 08:16:05;;;;;;;39.22;8.88;;;;;;;;;;4995297;28;20520;-81
2024/02/07 08:18:33;;;;;;;30.67;7.30;;;;;;;;;;4995782;28;20524;-80
2024/02/07 08:21:00;;;;;;;29.67;6.90;;;;;;;;;;4978215;28;20046;-81
2024/02/07 08:23:28;;;;;;;27.45;6.18;;;;;;;;;;4978002;28;20048;-81
2024/02/07 08:25:55;;;;;;;24.50;5.82;;;;;;;;;;4995815;28;20054;-81
2024/02/07 08:28:22;;;;;;;22.02;5.38;;;;;;;;;;4977630;28;20042;-81
2024/02/07 08:30:49;;;;;;;21.77;5.30;;;;;;;;;;4994515;28;20050;-81
2024/02/07 08:33:16;;;;;;;26.45;6.07;;;;;;;;;;4961798;28;20054;-81
2024/02/07 08:35:46;;;;;;;37.45;7.72;;;;;;;;;;4978880;28;20049;-81
2024/02/07 08:38:13;;;;;;;46.47;9.85;;;;;;;;;;4993717;28;20375;-81
2024/02/07 08:40:40;;;;;;;55.20;9.35;;;;;;;;;;4995264;28;20038;-82
2024/02/07 08:43:07;;;;;;;46.78;9.70;;;;;;;;;;4977301;28;20058;-82
2024/02/07 08:45:35;;;;;;;46.90;9.20;;;;;;;;;;4961811;28;20056;-82
2024/02/07 08:48:02;;;;;;;40.97;7.50;;;;;;;;;;4994219;28;20089;-82
2024/02/07 08:50:29;;;;;;;38.72;7.75;;;;;;;;;;4977277;28;20076;-81
2024/02/07 08:52:56;;;;;;;21.65;5.82;;;;;;;;;;4977865;28;20058;-82
2024/02/07 08:55:23;;;;;;;29.08;6.22;;;;;;;;;;4977039;28;20054;-81
2024/02/07 08:57:50;;;;;;;24.38;5.85;;;;;;;;;;4993590;28;20473;-81
2024/02/07 09:00:17;;;;;;;20.63;4.97;;;;;;;;;;4961341;28;20053;-82
2024/02/07 09:02:49;;;;;;;20.77;5.05;;;;;;;;;;4994906;28;20049;-81
2024/02/07 09:05:17;;;;;;;21.40;5.25;;;;;;;;;;4977062;28;20046;-82
2024/02/07 09:07:44;;;;;;;25.60;5.57;;;;;;;;;;4977731;28;20125;-81
2024/02/07 09:10:12;;;;;;;14.95;5.10;;;;;;;;;;4992904;28;20048;-81
2024/02/07 09:12:39;;;;;;;19.60;5.27;;;;;;;;;;4977696;28;20553;-81
2024/02/07 09:15:06;;;;;;;19.65;4.53;;;;;;;;;;4976844;28;20060;-82
2024/02/07 09:17:33;;;;;;;20.90;5.43;;;;;;;;;;4977395;28;20050;-82
2024/02/07 09:20:01;;;;;;;22.60;4.78;;;;;;;;;;4994661;28;20557;-81
2024/02/07 09:22:28;;;;;;;27.13;5.50;;;;;;;;;;4976655;28;20053;-81
2024/02/07 09:24:54;;;;;;;22.40;5.60;;;;;;;;;;4993277;28;20360;-81
2024/02/07 09:27:22;;;;;;;22.35;5.10;;;;;;;;;;4976823;28;20508;-81
2024/02/07 09:29:49;;;;;;;16.80;4.43;;;;;;;;;;4993318;28;20042;-81
2024/02/07 09:32:25;;;;;;;23.50;5.10;;;;;;;;;;4993781;28;20042;-81
2024/02/07 09:34:51;;;;;;;21.63;4.65;;;;;;;;;;4994184;28;20433;-82
2024/02/07 09:37:19;;;;;;;25.52;5.78;;;;;;;;;;4976549;28;20107;-80
2024/02/07 09:39:45;;;;;;;23.58;6.20;;;;;;;;;;4977069;28;20042;-82
2024/02/07 09:42:17;;;;;;;25.98;5.95;;;;;;;;;;4976526;28;20054;-81
2024/02/07 09:44:50;;;;;;;26.83;5.72;;;;;;;;;;4976955;28;20133;-82
2024/02/07 09:47:19;;;;;;;23.13;5.65;;;;;;;;;;4993797;28;20473;-81
2024/02/07 09:49:47;;;;;;;19.23;5.20;;;;;;;;;;4994074;28;20053;-81
2024/02/07 09:52:14;;;;;;;18.77;5.07;;;;;;;;;;4993559;28;20050;-81
2024/02/07 09:54:42;;;;;;;27.40;5.20;;;;;;;;;;4993912;28;20070;-81
2024/02/07 09:57:09;;;;;;;23.02;4.78;;;;;;;;;;4976127;28;20057;-81
2024/02/07 09:59:37;;;;;;;25.45;5.28;;;;;;;;;;4976541;28;20054;-80
2024/02/07 10:02:05;;;;;;;24.05;5.97;;;;;;;;;;4992833;28;20038;-81
2024/02/07 10:04:37;;;;;;;17.83;3.90;;;;;;;;;;4976596;28;20513;-81
2024/02/07 10:07:11;;;;;;;25.00;5.22;;;;;;;;;;4960019;28;20048;-80
2024/02/07 10:09:38;;;;;;;18.23;3.65;;;;;;;;;;4992956;28;20492;-81
2024/02/07 10:12:08;;;;;;;9.98;3.60;;;;;;;;;;4993296;28;20071;-81
2024/02/07 10:14:35;;;;;;;16.25;3.60;;;;;;;;;;4976499;28;20053;-81
2024/02/07 10:17:04;;;;;;;12.68;3.78;;;;;;;;;;4976179;28;20046;-81
2024/02/07 10:19:32;;;;;;;14.48;3.30;;;;;;;;;;4993196;28;20065;-82
2024/02/07 10:21:59;;;;;;;9.85;2.55;;;;;;;;;;4993609;28;20675;-81
2024/02/07 10:24:29;;;;;;;11.85;3.00;;;;;;;;;;4991842;28;20049;-82
2024/02/07 10:26:57;;;;;;;14.80;3.40;;;;;;;;;;4960195;28;20042;-82
2024/02/07 10:29:25;;;;;;;8.90;2.60;;;;;;;;;;4975605;28;20042;-81
2024/02/07 10:31:53;;;;;;;9.38;2.47;;;;;;;;;;4960051;28;20057;-81
2024/02/07 10:34:21;;;;;;;13.40;3.00;;;;;;;;;;4991761;28;20129;-81
2024/02/07 10:36:57;;;;;;;10.25;2.60;;;;;;;;;;4960158;28;20039;-81
2024/02/07 10:39:24;;;;;;;7.65;2.40;;;;;;;;;;4975663;28;20125;-81
2024/02/07 10:41:50;;;;;;;8.02;2.60;;;;;;;;;;4993341;28;20046;-81
2024/02/07 10:44:17;;;;;;;11.82;3.25;;;;;;;;;;4991628;28;20377;-81
2024/02/07 10:46:44;;;;;;;9.75;2.42;;;;;;;;;;4992092;28;20050;-81
2024/02/07 10:49:11;;;;;;;8.25;2.30;;;;;;;;;;4975336;28;20113;-81
2024/02/07 10:51:40;;;;;;;9.25;2.53;;;;;;;;;;4976024;28;20374;-81
2024/02/07 10:54:07;;;;;;;;;;;;;;;;;;4993008;28;20069;-81
2024/02/07 10:56:36;;;;;;;8.98;1.92;;;;;;;;;;4975935;28;19922;-81
2024/02/07 10:59:04;;;;;;;8.50;2.30;;;;;;;;;;4993692;28;20074;-82
2024/02/07 11:01:32;;;;;;;5.70;1.73;;;;;;;;;;4992850;28;20047;-82
2024/02/07 11:04:00;;;;;;;4.05;1.42;;;;;;;;;;4992140;28;20054;-82
2024/02/07 11:06:27;;;;;;;8.30;1.85;;;;;;;;;;4991611;28;20046;-82
2024/02/07 11:08:56;;;;;;;5.72;1.65;;;;;;;;;;4991614;28;20050;-82
2024/02/07 11:11:25;;;;;;;9.18;1.42;;;;;;;;;;4992831;28;20051;-82
2024/02/07 11:13:52;;;;;;;;;;;;;;;;;;4976013;28;20051;-81
2024/02/07 11:16:23;;;;;;;5.13;1.55;;;;;;;;;;4975517;28;20438;-82
2024/02/07 11:18:50;;;;;;;6.68;1.73;;;;;;;;;;4992025;28;20192;-82
2024/02/07 11:21:33;;;;;;;4.68;1.55;;;;;;;;;;4993069;28;20157;-82
2024/02/07 11:24:01;;;;;;;6.18;1.58;;;;;;;;;;4995681;28;20047;-81
2024/02/07 11:26:28;;;;;;;5.63;1.55;;;;;;;;;;4996515;28;20038;-82
2024/02/07 11:28:55;;;;;;;10.27;1.90;;;;;;;;;;4979311;28;20050;-82
2024/02/07 11:31:23;;;;;;;9.57;2.17;;;;;;;;;;4979232;28;20045;-82
2024/02/07 11:33:52;;;;;;;4.30;1.58;;;;;;;;;;4995514;28;20042;-82
2024/02/07 11:36:20;;;;;;;4.60;1.60;;;;;;;;;;4962890;28;20213;-82
2024/02/07 11:38:52;;;;;;;3.27;1.50;;;;;;;;;;4979434;28;20050;-82
2024/02/07 11:41:19;;;;;;;3.72;1.48;;;;;;;;;;4978936;28;20077;-81
2024/02/07 11:43:49;;;;;;;6.22;1.77;;;;;;;;;;4979503;28;20125;-82
2024/02/07 11:46:17;;;;;;;5.63;1.80;;;;;;;;;;4963369;28;20082;-82
2024/02/07 11:48:51;;;;;;;8.35;2.10;;;;;;;;;;4979232;28;20042;-81
2024/02/07 11:51:20;;;;;;;11.18;2.20;;;;;;;;;;4962770;28;20045;-82
2024/02/07 11:53:47;;;;;;;11.55;2.20;;;;;;;;;;4995290;28;20478;-81
2024/02/07 11:56:20;;;;;;;7.88;2.38;;;;;;;;;;4978824;28;20502;-82
2024/02/07 11:58:52;;;;;;;8.40;2.50;;;;;;;;;;4979784;28;20046;-82
2024/02/07 12:01:21;;;;;;;6.03;2.17;;;;;;;;;;4979981;28;20419;-81
2024/02/07 12:03:55;;;;;;;6.97;2.15;;;;;;;;;;4997524;28;20053;-82
2024/02/07 12:06:24;;;;;;;4.72;2.13;;;;;;;;;;4970133;28;20074;-82
2024/02/07 12:08:52;;;;;;;6.20;1.50;;;;;;;;;;4994328;28;20073;-81
2024/02/07 12:11:19;;;;;;;3.28;1.25;;;;;;;;;;4994159;28;20042;-81
2024/02/07 12:13:45;;;;;;;4.28;1.35;;;;;;;;;;4994552;28;20051;-81
2024/02/07 12:16:13;;;;;;;2.67;1.15;;;;;;;;;;5010610;28;20081;-81
2024/02/07 12:18:44;;;;;;;5.18;1.35;;;;;;;;;;4966929;28;20137;-82
2024/02/07 12:21:11;;;;;;;6.45;1.92;;;;;;;;;;4977909;28;20097;-82
2024/02/07 12:23:38;;;;;;;8.05;1.80;;;;;;;;;;4978643;28;20046;-81
2024/02/07 12:26:05;;;;;;;5.07;1.50;;;;;;;;;;4995049;28;20047;-82
2024/02/07 12:28:32;;;;;;;5.25;1.67;;;;;;;;;;4962460;28;20046;-81
2024/02/07 12:31:00;;;;;;;5.90;1.90;;;;;;;;;;4978293;28;20066;-81
2024/02/07 12:33:27;;;;;;;4.68;1.75;;;;;;;;;;4961057;28;20065;-81
2024/02/07 12:36:02;;;;;;;4.13;1.45;;;;;;;;;;4977973;28;20060;-82
2024/02/07 12:38:29;;;;;;;2.33;1.23;;;;;;;;;;4977963;28;20038;-82
2024/02/07 12:40:56;;;;;;;2.42;1.00;;;;;;;;;;4995268;28;20046;-82
2024/02/07 12:43:25;;;;;;;4.85;1.25;;;;;;;;;;4993886;28;20506;-82
2024/02/07 12:45:58;;;;;;;6.32;1.40;;;;;;;;;;4977962;28;20061;-82
2024/02/07 12:48:25;;;;;;;3.22;1.52;;;;;;;;;;4977484;28;20050;-82
2024/02/07 12:50:54;;;;;;;3.55;1.17;;;;;;;;;;4962078;28;20394;-82
2024/02/07 12:53:22;;;;;;;2.92;1.30;;;;;;;;;;4961619;28;20114;-82
2024/02/07 12:55:49;;;;;;;5.72;1.52;;;;;;;;;;4978837;28;20116;-81
2024/02/07 12:58:17;;;;;;;5.28;1.30;;;;;;;;;;4995338;28;20053;-82
2024/02/07 13:00:44;;;;;;;1.85;1.20;;;;;;;;;;4978026;28;20050;-82
2024/02/07 13:03:12;;;;;;;4.47;1.08;;;;;;;;;;4992803;28;20097;-82
2024/02/07 13:05:39;;;;;;;4.13;1.52;;;;;;;;;;4994946;28;20096;-82
2024/02/07 13:08:09;;;;;;;4.95;1.33;;;;;;;;;;4976110;28;20397;-83
2024/02/07 13:10:40;;;;;;;3.58;1.10;;;;;;;;;;4993492;28;20421;-82
2024/02/07 13:13:07;;;;;;;3.45;1.10;;;;;;;;;;4976793;28;20054;-84
2024/02/07 13:15:34;;;;;;;4.75;1.20;;;;;;;;;;4994344;28;20097;-84
2024/02/07 13:18:02;;;;;;;3.13;1.57;;;;;;;;;;4994323;28;20512;-83
2024/02/07 13:20:30;;;;;;;3.80;1.43;;;;;;;;;;4976341;28;20129;-84
2024/02/07 13:22:59;;;;;;;2.05;1.10;;;;;;;;;;4994137;28;20277;-84
2024/02/07 13:25:26;;;;;;;5.22;1.25;;;;;;;;;;4993686;28;20038;-83
2024/02/07 13:27:53;;;;;;;1.90;1.00;;;;;;;;;;4988862;28;20057;-83
2024/02/07 13:30:19;;;;;;;4.22;1.10;;;;;;;;;;4993538;28;20053;-83
2024/02/07 13:32:46;;;;;;;1.60;0.70;;;;;;;;;;4993923;28;20050;-83
2024/02/07 13:35:15;;;;;;;1.17;0.47;;;;;;;;;;4992859;28;20038;-84
2024/02/07 13:37:44;;;;;;;4.07;0.80;;;;;;;;;;4961263;28;20057;-85
2024/02/07 13:40:11;;;;;;;2.00;0.73;;;;;;;;;;4991167;28;20089;-84
2024/02/07 13:42:38;;;;;;;2.58;1.00;;;;;;;;;;4976109;28;20042;-85
2024/02/07 13:45:06;;;;;;;3.58;0.85;;;;;;;;;;4992504;28;20042;-84
2024/02/07 13:47:33;;;;;;;3.17;0.88;;;;;;;;;;4960378;28;20129;-84
2024/02/07 13:50:01;;;;;;;2.63;1.20;;;;;;;;;;4994254;28;20043;-84
2024/02/07 13:52:28;;;;;;;4.32;1.48;;;;;;;;;;4993759;28;20046;-82
2024/02/07 13:54:56;;;;;;;4.38;2.20;;;;;;;;;;4998131;28;20046;-82
2024/02/07 13:57:23;;;;;;;4.38;1.58;;;;;;;;;;4980499;28;25973;-84
2024/02/07 13:59:50;;;;;;;6.97;1.83;;;;;;;;;;4978952;28;20043;-84
2024/02/07 14:02:17;;;;;;;3.53;1.67;;;;;;;;;;4992859;28;20121;-83
2024/02/07 14:04:44;;;;;;;4.70;1.40;;;;;;;;;;4976026;28;20138;-84
2024/02/07 14:07:11;;;;;;;2.65;1.48;;;;;;;;;;4993143;28;20413;-84
2024/02/07 14:09:37;;;;;;;5.93;1.90;;;;;;;;;;4993305;28;20112;-81
2024/02/07 14:12:05;;;;;;;5.28;1.70;;;;;;;;;;4992704;28;20046;-82
2024/02/07 14:14:32;;;;;;;3.30;1.50;;;;;;;;;;4992148;28;20050;-82
2024/02/07 14:16:59;;;;;;;4.03;1.65;;;;;;;;;;4976193;28;20490;-82
2024/02/07 14:19:26;;;;;;;4.43;1.33;;;;;;;;;;4993287;28;20047;-82
2024/02/07 14:21:53;;;;;;;4.25;1.40;;;;;;;;;;4993563;28;20046;-82
2024/02/07 14:24:20;;;;;;;5.13;1.00;;;;;;;;;;4991920;28;20109;-82
2024/02/07 14:26:47;;;;;;;2.83;1.10;;;;;;;;;;4976463;28;20042;-82
2024/02/07 14:29:14;;;;;;;1.58;0.98;;;;;;;;;;4993063;28;20050;-82
2024/02/07 14:31:41;;;;;;;2.28;0.98;;;;;;;;;;4992297;28;20090;-81
2024/02/07 14:34:08;;;;;;;2.15;1.38;;;;;;;;;;4992749;28;20130;-82
2024/02/07 14:36:37;;;;;;;2.65;1.10;;;;;;;;;;4993409;28;20428;-82
2024/02/07 14:39:04;;;;;;;1.85;0.77;;;;;;;;;;4992636;28;20397;-82
2024/02/07 14:41:31;;;;;;;2.58;1.00;;;;;;;;;;4993342;28;20046;-82
2024/02/07 14:43:58;;;;;;;3.63;1.23;;;;;;;;;;4991977;28;20047;-82
2024/02/07 14:46:25;;;;;;;3.58;1.33;;;;;;;;;;4992384;28;20093;-83
2024/02/07 14:48:51;;;;;;;3.65;1.33;;;;;;;;;;4992568;28;20125;-83
2024/02/07 14:51:18;;;;;;;1.50;1.05;;;;;;;;;;4992209;28;20045;-83
2024/02/07 14:53:45;;;;;;;4.10;1.60;;;;;;;;;;4976920;28;20045;-83
2024/02/07 14:56:13;;;;;;;4.20;1.33;;;;;;;;;;4995821;28;20523;-83
2024/02/07 14:58:40;;;;;;;5.20;1.65;;;;;;;;;;4979322;28;20046;-83
2024/02/07 15:01:07;;;;;;;3.90;1.88;;;;;;;;;;4975676;28;20418;-83
2024/02/07 15:03:34;;;;;;;3.95;1.65;;;;;;;;;;4997023;28;20050;-84
2024/02/07 15:06:01;;;;;;;26.35;2.60;;;;;;;;;;4997266;28;20046;-83
2024/02/07 15:08:28;;;;;;;20.65;2.63;;;;;;;;;;4978944;28;20049;-83
2024/02/07 15:10:55;;;;;;;44.03;3.30;;;;;;;;;;4979683;28;20049;-83
2024/02/07 15:13:22;;;;;;;62.85;3.75;;;;;;;;;;4963117;28;20042;-84
2024/02/07 15:15:48;;;;;;;54.13;3.22;;;;;;;;;;4996944;28;20057;-83
2024/02/07 15:18:15;;;;;;;26.40;2.70;;;;;;;;;;4996368;28;20496;-83
2024/02/07 15:20:42;;;;;;;19.50;2.53;;;;;;;;;;4996935;28;20047;-84
2024/02/07 15:23:11;;;;;;;13.15;2.30;;;;;;;;;;4996665;28;20046;-82
2024/02/07 15:25:38;;;;;;;11.00;2.15;;;;;;;;;;4996726;28;20097;-83
2024/02/07 15:28:05;;;;;;;5.55;1.83;;;;;;;;;;4979080;28;20050;-83
2024/02/07 15:30:32;;;;;;;9.93;1.80;;;;;;;;;;4996853;28;20053;-82
2024/02/07 15:32:59;;;;;;;3.50;1.83;;;;;;;;;;4996693;28;20045;-83
2024/02/07 15:35:26;;;;;;;2.28;1.25;;;;;;;;;;4996384;28;20129;-83
2024/02/07 15:37:53;;;;;;;5.38;1.60;;;;;;;;;;4978953;28;20125;-83